Time;durP1;ratioP1;P1;durP2;ratioP2;P2;SDS_P1;SDS_P2;PMS_P1;PMS_P2;Temp;Humidity;BMP_temperature;BMP_pressure;BME280_temperature;BME280_humidity;BME280_pressure;Samples;Min_cycle;Max_cycle;Signal;HPM_P1;HPM_P2
2022/05/25 00:01:00;;;;;;;3.92;1.80;;;;;;;7.94;99.14;101290.09;5053146;28;20036;-76
2022/05/25 00:03:26;;;;;;;3.00;2.03;;;;;;;7.91;98.82;101291.16;5053093;28;20032;-75
2022/05/25 00:05:52;;;;;;;5.32;2.35;;;;;;;7.93;100.00;101291.06;5053131;28;20070;-76
2022/05/25 00:08:18;;;;;;;6.40;2.20;;;;;;;7.95;100.00;101289.97;5053182;28;20109;-76
2022/05/25 00:10:43;;;;;;;2.70;2.00;;;;;;;7.97;100.00;101289.03;5053291;28;20032;-76
2022/05/25 00:13:09;;;;;;;5.15;2.03;;;;;;;7.95;100.00;101289.13;5053649;28;20341;-76
2022/05/25 00:15:35;;;;;;;2.53;1.90;;;;;;;7.93;100.00;101283.09;5051736;28;20198;-76
2022/05/25 00:18:00;;;;;;;3.92;2.20;;;;;;;7.95;100.00;101289.97;5052851;28;20029;-76
2022/05/25 00:20:26;;;;;;;3.88;2.55;;;;;;;7.97;100.00;101297.81;5052629;28;20041;-75
2022/05/25 00:22:55;;;;;;;5.72;2.28;;;;;;;8.00;100.00;101292.31;5052834;28;20141;-76
2022/05/25 00:25:22;;;;;;;5.30;2.30;;;;;;;8.03;100.00;101296.53;5053030;28;20040;-76
2022/05/25 00:27:48;;;;;;;4.22;2.10;;;;;;;8.05;100.00;101297.28;5053536;28;20029;-76
2022/05/25 00:30:15;;;;;;;6.80;2.70;;;;;;;8.09;100.00;101304.88;5052737;28;20039;-76
2022/05/25 00:32:41;;;;;;;5.57;2.80;;;;;;;8.11;100.00;101302.13;5052805;28;20037;-75
2022/05/25 00:35:12;;;;;;;4.68;2.80;;;;;;;8.11;100.00;101299.47;5052635;28;20114;-76
2022/05/25 00:37:39;;;;;;;8.13;2.90;;;;;;;8.09;100.00;101296.94;5052560;28;20052;-75
2022/05/25 00:40:06;;;;;;;8.23;3.17;;;;;;;8.07;100.00;101296.19;5052346;28;20044;-75
2022/05/25 00:42:31;;;;;;;9.35;2.60;;;;;;;8.05;100.00;101303.41;5052562;28;20033;-75
2022/05/25 00:44:57;;;;;;;3.95;2.65;;;;;;;8.01;100.00;101298.44;5052064;28;20029;-75
2022/05/25 00:47:25;;;;;;;5.72;2.78;;;;;;;8.01;100.00;101303.75;5052277;28;20120;-75
2022/05/25 00:49:51;;;;;;;4.70;2.88;;;;;;;8.01;100.00;101303.75;5052341;28;20036;-76
2022/05/25 00:52:16;;;;;;;5.72;2.50;;;;;;;7.97;100.00;101307.56;5052427;28;20132;-75
2022/05/25 00:54:45;;;;;;;7.53;2.65;;;;;;;7.93;100.00;101306.97;5052046;28;20033;-75
2022/05/25 00:57:30;;;;;;;8.10;2.70;;;;;;;7.94;100.00;101308.63;5052090;28;20152;-75
2022/05/25 01:00:08;;;;;;;6.03;2.47;;;;;;;7.92;100.00;101313.19;5052096;28;20069;-75
2022/05/25 01:02:58;;;;;;;6.78;2.95;;;;;;;7.90;100.00;101307.19;5052086;28;20128;-75
2022/05/25 01:05:31;;;;;;;6.95;2.75;;;;;;;7.91;100.00;101314.16;5052368;28;20040;-75
2022/05/25 01:08:22;;;;;;;5.25;2.72;;;;;;;7.90;100.00;101308.00;5051891;28;20124;-75
2022/05/25 01:11:14;;;;;;;6.75;2.60;;;;;;;7.94;100.00;101312.16;5052262;28;20073;-75
2022/05/25 01:13:56;;;;;;;9.23;2.88;;;;;;;7.95;100.00;101315.63;5051619;28;20039;-76
2022/05/25 01:16:46;;;;;;;9.00;2.70;;;;;;;7.95;100.00;101311.16;5051992;28;20044;-76
2022/05/25 01:19:42;;;;;;;9.55;2.45;;;;;;;7.98;100.00;101314.56;5051491;28;20032;-76
2022/05/25 01:22:32;;;;;;;6.10;2.15;;;;;;;7.95;100.00;101315.63;5051642;28;20056;-76
2022/05/25 01:25:33;;;;;;;10.88;2.95;;;;;;;7.96;100.00;101317.34;5050300;28;20025;-77
2022/05/25 01:28:10;;;;;;;4.78;2.40;;;;;;;7.89;100.00;101316.91;5051491;28;20063;-77
2022/05/25 01:30:39;;;;;;;8.40;2.95;;;;;;;7.85;100.00;101315.47;5051504;28;20089;-76
2022/05/25 01:33:27;;;;;;;8.70;2.45;;;;;;;7.83;100.00;101327.94;5049596;28;20058;-77
2022/05/25 01:36:04;;;;;;;7.13;2.35;;;;;;;7.80;100.00;101330.81;5033758;28;20057;-77
2022/05/25 01:38:46;;;;;;;7.13;2.67;;;;;;;7.82;100.00;101328.06;5051072;28;20045;-74
2022/05/25 01:41:19;;;;;;;;;;;;;;;7.80;100.00;101327.34;5051484;28;20102;-74
2022/05/25 01:43:52;;;;;;;4.75;2.33;;;;;;;7.79;100.00;101325.63;5051355;28;20007;-75
2022/05/25 01:46:23;;;;;;;9.05;2.60;;;;;;;7.75;100.00;101330.31;5050679;28;20413;-75
2022/05/25 01:48:51;;;;;;;7.93;3.13;;;;;;;7.74;100.00;101337.41;5051437;28;20029;-76
2022/05/25 01:51:21;;;;;;;10.60;3.60;;;;;;;7.76;100.00;101332.84;5051141;28;20032;-76
2022/05/25 01:53:51;;;;;;;6.28;3.22;;;;;;;7.80;100.00;101338.78;5051017;28;20097;-76
2022/05/25 01:56:20;;;;;;;8.32;3.00;;;;;;;7.84;100.00;101342.91;5051174;28;20076;-76
2022/05/25 01:58:50;;;;;;;8.35;4.32;;;;;;;7.84;100.00;101337.59;5050961;28;20162;-76
2022/05/25 02:01:16;;;;;;;10.07;4.05;;;;;;;7.84;100.00;101344.72;5051309;28;20071;-76
2022/05/25 02:06:57;;;;;;;12.93;4.05;;;;;;;7.82;100.00;101338.66;5050952;28;20060;-76
2022/05/25 02:09:40;;;;;;;15.55;5.88;;;;;;;7.90;100.00;101344.28;5050697;28;20112;-76
2022/05/25 02:12:27;;;;;;;6.90;4.40;;;;;;;7.88;100.00;101336.44;5050618;28;20051;-76
2022/05/25 02:15:26;;;;;;;7.32;3.83;;;;;;;7.85;100.00;101335.78;5050769;28;20029;-75
2022/05/25 02:18:25;;;;;;;14.27;4.80;;;;;;;7.85;100.00;101333.13;5051161;28;20029;-76
2022/05/25 02:21:01;;;;;;;7.10;4.47;;;;;;;7.83;100.00;101340.38;5050921;28;20112;-75
2022/05/25 02:24:04;;;;;;;11.27;4.95;;;;;;;7.84;100.00;101344.72;5051107;28;20025;-76
2022/05/25 02:26:58;;;;;;;9.48;4.30;;;;;;;7.82;100.00;101347.44;5050507;28;20033;-76
2022/05/25 02:29:29;;;;;;;12.63;5.03;;;;;;;7.77;100.00;101352.22;5049880;28;20040;-75
2022/05/25 02:32:25;;;;;;;11.57;5.43;;;;;;;7.75;100.00;101346.22;5050544;28;20025;-76
2022/05/25 02:34:52;;;;;;;13.27;6.28;;;;;;;7.72;100.00;101349.06;5042004;28;20043;-76
2022/05/25 02:37:23;;;;;;;8.57;4.90;;;;;;;7.72;100.00;101347.25;5049631;28;20449;-76
2022/05/25 02:39:53;;;;;;;8.90;4.75;;;;;;;7.65;100.00;101345.16;5050127;28;20145;-75
2022/05/25 02:42:18;;;;;;;9.88;4.93;;;;;;;7.61;100.00;101343.66;5050417;28;20048;-75
2022/05/25 02:44:44;;;;;;;9.98;5.22;;;;;;;7.59;100.00;101341.13;5050257;28;20422;-76
2022/05/25 02:47:10;;;;;;;9.68;5.15;;;;;;;7.57;100.00;101343.06;5050065;28;20134;-75
2022/05/25 02:49:36;;;;;;;10.82;6.07;;;;;;;7.54;100.00;101343.28;5050349;28;20108;-74
2022/05/25 02:52:03;;;;;;;14.13;6.40;;;;;;;7.54;100.00;101346.75;5050037;28;20449;-77
2022/05/25 02:54:28;;;;;;;7.07;5.28;;;;;;;7.53;100.00;101349.50;5050237;28;20037;-76
2022/05/25 02:56:54;;;;;;;9.13;6.35;;;;;;;7.52;100.00;101347.81;5050005;28;20028;-75
2022/05/25 02:59:19;;;;;;;14.93;6.53;;;;;;;7.52;100.00;101348.63;5049984;28;20037;-75
2022/05/25 03:01:44;;;;;;;10.27;6.50;;;;;;;7.51;100.00;101351.41;5048861;28;20087;-74
2022/05/25 03:04:10;;;;;;;11.98;5.70;;;;;;;7.48;100.00;101356.91;5049646;28;20418;-75
2022/05/25 03:06:35;;;;;;;21.90;7.45;;;;;;;7.45;100.00;101360.63;5049974;28;20037;-75
2022/05/25 03:09:02;;;;;;;16.83;8.82;;;;;;;7.50;100.00;101366.44;5049523;28;20132;-77
2022/05/25 03:11:27;;;;;;;20.92;10.02;;;;;;;7.50;100.00;101366.44;5049857;28;20021;-76
2022/05/25 03:13:53;;;;;;;18.85;7.60;;;;;;;7.48;100.00;101375.44;5049702;28;20091;-76
2022/05/25 03:16:20;;;;;;;15.73;7.72;;;;;;;7.47;100.00;101369.31;5049587;28;20120;-74
2022/05/25 03:18:46;;;;;;;11.05;7.68;;;;;;;7.48;100.00;101376.31;5050063;28;20030;-74
2022/05/25 03:21:11;;;;;;;16.52;8.10;;;;;;;7.53;100.00;101381.28;5049484;28;20484;-77
2022/05/25 03:23:37;;;;;;;16.88;9.10;;;;;;;7.54;100.00;101386.47;5050028;28;20068;-74
2022/05/25 03:26:03;;;;;;;18.83;9.20;;;;;;;7.57;100.00;101386.25;5047821;28;20033;-77
2022/05/25 03:28:29;;;;;;;16.77;8.75;;;;;;;7.64;100.00;101385.84;5049713;28;20151;-74
2022/05/25 03:30:55;;;;;;;20.88;11.25;;;;;;;7.68;100.00;101392.63;5049812;28;20175;-74
2022/05/25 03:33:20;;;;;;;21.42;11.93;;;;;;;7.74;100.00;101385.06;5049553;28;20037;-75
2022/05/25 03:35:45;;;;;;;20.48;11.07;;;;;;;7.82;100.00;101384.53;5049710;28;20033;-74
2022/05/25 03:38:11;;;;;;;16.25;9.80;;;;;;;7.90;100.00;101391.97;5050415;28;20135;-75
2022/05/25 03:40:38;;;;;;;27.17;10.43;;;;;;;7.97;100.00;101397.66;5052931;28;20113;-75
2022/05/25 03:43:09;;;;;;;19.90;9.88;;;;;;;7.98;100.00;101392.25;5053022;28;20033;-74
2022/05/25 03:45:35;;;;;;;19.10;10.32;;;;;;;8.00;100.00;101390.38;5050579;28;20132;-75
2022/05/25 03:48:00;;;;;;;20.67;10.50;;;;;;;8.01;100.00;101392.03;5049584;28;20097;-74
2022/05/25 03:50:26;;;;;;;21.50;9.70;;;;;;;8.02;100.00;101390.25;5052407;28;20485;-75
2022/05/25 03:52:51;;;;;;;18.20;9.63;;;;;;;8.02;100.00;101396.41;5053066;28;20377;-74
2022/05/25 03:55:17;;;;;;;22.33;10.48;;;;;;;8.06;100.00;101395.22;5053081;28;20383;-75
2022/05/25 03:57:42;;;;;;;17.23;9.50;;;;;;;8.14;100.00;101393.84;5053308;28;20075;-77
2022/05/25 04:00:08;;;;;;;25.48;12.25;;;;;;;8.28;100.00;101396.31;5051658;28;20041;-76
2022/05/25 04:02:34;;;;;;;16.55;9.68;;;;;;;8.32;100.00;101389.00;5053694;28;20036;-75
2022/05/25 04:05:18;;;;;;;29.60;12.20;;;;;;;8.36;100.00;101399.28;5053291;28;20094;-77
2022/05/25 04:07:46;;;;;;;24.70;10.32;;;;;;;8.40;100.00;101402.56;5053349;28;20062;-77
2022/05/25 04:10:17;;;;;;;22.45;11.10;;;;;;;8.47;100.00;101399.38;5053051;28;20461;-75
2022/05/25 04:12:43;;;;;;;24.60;11.65;;;;;;;8.53;100.00;101395.44;5053155;28;20025;-74
2022/05/25 04:15:14;;;;;;;19.05;10.88;;;;;;;8.60;100.00;101396.69;5053296;28;20032;-75
2022/05/25 04:17:39;;;;;;;21.50;10.93;;;;;;;8.67;100.00;101390.91;5053183;28;20033;-75
2022/05/25 04:20:05;;;;;;;28.05;12.48;;;;;;;8.73;100.00;101393.09;5052788;28;20091;-74
2022/05/25 04:22:32;;;;;;;23.83;11.77;;;;;;;8.79;100.00;101400.63;5051365;28;20025;-76
2022/05/25 04:24:59;;;;;;;27.92;14.20;;;;;;;8.88;100.00;101391.13;5053126;28;20065;-75
2022/05/25 04:27:25;;;;;;;26.27;14.65;;;;;;;8.99;100.00;101394.66;5052740;28;20045;-75
2022/05/25 04:29:50;;;;;;;29.38;14.80;;;;;;;9.10;100.00;101391.19;5052491;28;20033;-76
2022/05/25 04:32:16;;;;;;;34.65;16.65;;;;;;;9.22;100.00;101389.44;5052156;28;20037;-76
2022/05/25 04:34:42;;;;;;;34.50;17.02;;;;;;;9.30;100.00;101386.19;5052614;28;20041;-75
2022/05/25 04:39:51;;;;;;;38.08;15.80;;;;;;;9.40;100.00;101395.13;5052421;28;20135;-76
2022/05/25 04:42:16;;;;;;;35.75;17.33;;;;;;;9.48;100.00;101395.41;5051095;28;20433;-78
2022/05/25 04:44:42;;;;;;;39.10;17.25;;;;;;;9.53;100.00;101395.06;5052010;28;20112;-76
2022/05/25 04:47:08;;;;;;;39.22;18.50;;;;;;;9.59;100.00;101393.72;5052101;28;20048;-74
2022/05/25 04:49:34;;;;;;;42.60;18.08;;;;;;;9.59;100.00;101385.75;5052091;28;20040;-73
2022/05/25 04:51:59;;;;;;;32.78;16.75;;;;;;;9.63;100.00;101380.09;5051799;28;20040;-76
2022/05/25 04:54:25;;;;;;;42.47;17.17;;;;;;;9.71;100.00;101382.97;5052091;28;20446;-77
2022/05/25 04:59:34;;;;;;;41.53;17.85;;;;;;;9.89;100.00;101385.16;5052474;28;20044;-77
2022/05/25 05:01:59;;;;;;;40.65;17.85;;;;;;;10.05;100.00;101390.94;5051614;28;20037;-76
2022/05/25 05:04:26;;;;;;;42.90;18.23;;;;;;;10.19;100.00;101389.84;5050268;28;20067;-77
2022/05/25 05:06:52;;;;;;;44.28;17.83;;;;;;;10.34;100.00;101392.28;5052284;28;20361;-76
2022/05/25 05:09:18;;;;;;;34.95;16.15;;;;;;;10.47;100.00;101386.81;5051864;28;20258;-76
2022/05/25 05:11:44;;;;;;;36.58;16.05;;;;;;;10.55;100.00;101392.34;5050277;28;20145;-76
2022/05/25 05:14:09;;;;;;;29.20;15.88;;;;;;;10.67;100.00;101398.47;5051965;28;20029;-76
2022/05/25 05:16:34;;;;;;;33.15;16.90;;;;;;;10.74;100.00;101397.00;5051632;28;20040;-76
2022/05/25 05:19:00;;;;;;;26.38;13.95;;;;;;;10.85;100.00;101399.63;5051822;28;20141;-76
2022/05/25 05:21:25;;;;;;;29.08;14.73;;;;;;;10.86;100.00;101400.47;5049847;28;20165;-77
2022/05/25 05:23:51;;;;;;;29.70;14.55;;;;;;;10.91;100.00;101398.25;5051844;28;20405;-76
2022/05/25 05:26:16;;;;;;;32.90;14.40;;;;;;;10.94;100.00;101401.53;5051584;28;20045;-75
2022/05/25 05:28:42;;;;;;;23.10;13.68;;;;;;;11.00;100.00;101401.97;5051730;28;20369;-76
2022/05/25 05:31:09;;;;;;;24.88;13.35;;;;;;;11.08;100.00;101402.19;5051396;28;20072;-75
2022/05/25 05:33:34;;;;;;;25.65;12.73;;;;;;;11.16;100.00;101405.03;5051457;28;20144;-76
2022/05/25 05:36:06;;;;;;;37.60;14.07;;;;;;;11.25;100.00;101400.75;5050984;28;20424;-76
2022/05/25 05:38:34;;;;;;;22.63;13.38;;;;;;;11.34;100.00;101399.16;5049688;28;20124;-76
2022/05/25 05:41:00;;;;;;;21.40;12.70;;;;;;;11.44;100.00;101402.72;5051314;28;20029;-76
2022/05/25 05:43:25;;;;;;;24.77;12.95;;;;;;;11.60;100.00;101396.94;5051006;28;20028;-77
2022/05/25 05:45:53;;;;;;;25.08;12.95;;;;;;;11.74;100.00;101403.72;5051055;28;20036;-76
2022/05/25 05:48:21;;;;;;;21.38;12.57;;;;;;;11.92;100.00;101407.44;5050990;28;20037;-76
2022/05/25 05:50:50;;;;;;;23.33;12.18;;;;;;;12.12;100.00;101411.06;5051237;28;20120;-76
2022/05/25 05:53:16;;;;;;;20.38;11.15;;;;;;;12.21;100.00;101412.09;5050780;28;20108;-76
2022/05/25 05:55:44;;;;;;;16.38;11.55;;;;;;;12.34;100.00;101415.31;5050827;28;20047;-76
2022/05/25 05:58:10;;;;;;;24.77;12.00;;;;;;;12.43;100.00;101420.84;5051009;28;20057;-76
2022/05/25 06:00:36;;;;;;;25.25;11.50;;;;;;;12.39;98.78;101428.28;5050489;28;20064;-76
2022/05/25 06:03:02;;;;;;;20.13;11.52;;;;;;;12.38;98.93;101426.59;5050939;28;20122;-75
2022/05/25 06:05:28;;;;;;;17.05;12.00;;;;;;;12.43;98.44;101428.84;5050975;28;20033;-76
2022/05/25 06:07:53;;;;;;;23.95;12.35;;;;;;;12.51;97.93;101429.03;5050293;28;20388;-75
2022/05/25 06:10:19;;;;;;;21.15;12.48;;;;;;;12.56;96.26;101428.59;5050788;28;20028;-75
2022/05/25 06:12:46;;;;;;;19.73;12.35;;;;;;;12.52;95.35;101430.69;5049963;28;20029;-75
2022/05/25 06:20:39;;;;;;;19.92;12.07;;;;;;;12.67;95.90;101433.81;5050726;28;20051;-75
2022/05/25 06:23:04;;;;;;;21.67;12.55;;;;;;;12.75;95.46;101431.31;5050646;28;20124;-75
2022/05/25 06:25:30;;;;;;;22.23;12.55;;;;;;;12.90;95.52;101442.41;5050581;28;20434;-77
2022/05/25 06:27:56;;;;;;;16.80;11.30;;;;;;;13.07;94.67;101442.69;5050639;28;20036;-75
2022/05/25 06:30:21;;;;;;;20.55;12.15;;;;;;;13.21;92.04;101445.78;5050660;28;20097;-75
2022/05/25 06:32:47;;;;;;;23.45;11.55;;;;;;;13.37;90.99;101441.72;5050134;28;20082;-75
2022/05/25 06:35:13;;;;;;;19.30;10.93;;;;;;;13.48;89.51;101441.56;5032239;28;20131;-76
2022/05/25 06:37:39;;;;;;;19.52;12.00;;;;;;;13.60;89.15;101450.28;5050219;28;20088;-76
2022/05/25 06:40:05;;;;;;;18.92;11.48;;;;;;;13.79;88.97;101448.53;5050100;28;20028;-75
2022/05/25 06:42:30;;;;;;;19.00;11.38;;;;;;;14.01;86.92;101450.84;5050163;28;20090;-78
2022/05/25 06:44:55;;;;;;;18.85;10.60;;;;;;;14.06;86.17;101453.94;5048538;28;20071;-75
2022/05/25 06:47:21;;;;;;;20.02;10.70;;;;;;;14.26;85.22;101454.69;5050337;28;20124;-76
2022/05/25 06:49:46;;;;;;;18.20;9.90;;;;;;;14.43;83.73;101450.34;5050183;28;20033;-75
2022/05/25 06:52:13;;;;;;;18.45;9.63;;;;;;;14.37;81.87;101456.31;5050394;28;20339;-76
2022/05/25 06:54:39;;;;;;;18.58;9.98;;;;;;;14.13;82.40;101456.03;5050374;28;20139;-76
2022/05/25 06:57:05;;;;;;;15.02;9.00;;;;;;;14.01;83.55;101460.72;5050220;28;20041;-75
2022/05/25 06:59:30;;;;;;;16.98;9.52;;;;;;;13.88;86.07;101458.34;5049916;28;20033;-75
2022/05/25 07:01:56;;;;;;;20.63;10.77;;;;;;;13.93;85.27;101454.25;5050754;28;20380;-76
2022/05/25 07:04:22;;;;;;;18.25;9.05;;;;;;;14.18;83.81;101465.31;5049944;28;20147;-76
2022/05/25 07:06:47;;;;;;;16.73;9.52;;;;;;;14.31;83.10;101467.63;5050129;28;20120;-76
2022/05/25 07:09:12;;;;;;;19.85;8.93;;;;;;;14.13;81.95;101464.88;5050284;28;20029;-75
2022/05/25 07:11:39;;;;;;;20.80;8.95;;;;;;;13.93;83.45;101466.81;5050183;28;20094;-76
2022/05/25 07:14:05;;;;;;;16.95;8.88;;;;;;;13.82;83.79;101469.63;5049969;28;20044;-75
2022/05/25 07:16:31;;;;;;;17.80;9.20;;;;;;;13.95;84.35;101464.81;5049952;28;20033;-76
2022/05/25 07:18:57;;;;;;;15.48;8.95;;;;;;;14.13;83.73;101466.72;5050355;28;20047;-76
2022/05/25 07:21:27;;;;;;;18.17;8.82;;;;;;;14.16;82.80;101459.22;5050320;28;20123;-75
2022/05/25 07:23:54;;;;;;;10.88;7.55;;;;;;;14.26;83.11;101470.75;5050600;28;20361;-75
2022/05/25 07:26:21;;;;;;;18.77;8.93;;;;;;;14.35;80.98;101469.00;5054063;28;20037;-76
2022/05/25 07:28:47;;;;;;;16.73;7.82;;;;;;;14.57;83.28;101472.25;5054012;28;20048;-75
2022/05/25 07:31:29;;;;;;;14.38;7.88;;;;;;;15.03;81.91;101478.47;5053980;28;20049;-76
2022/05/25 07:34:08;;;;;;;20.17;8.18;;;;;;;15.37;77.69;101482.31;5054291;28;20229;-75
2022/05/25 07:36:36;;;;;;;12.27;6.57;;;;;;;15.49;76.72;101483.75;5053021;28;20414;-75
2022/05/25 07:39:07;;;;;;;13.25;6.18;;;;;;;15.52;74.33;101483.44;5053926;28;20477;-75
2022/05/25 07:41:36;;;;;;;13.23;6.13;;;;;;;15.60;75.47;101474.59;5053766;28;20032;-75
2022/05/25 07:44:02;;;;;;;13.90;5.88;;;;;;;15.65;74.06;101477.66;5053690;28;20029;-75
2022/05/25 07:46:29;;;;;;;11.20;4.88;;;;;;;15.84;74.13;101479.34;5053301;28;20056;-76
2022/05/25 07:48:55;;;;;;;10.02;5.07;;;;;;;15.80;72.20;101481.47;5053832;28;20112;-75
2022/05/25 07:51:22;;;;;;;6.78;3.80;;;;;;;15.82;70.82;101482.19;5053778;28;20122;-76
2022/05/25 07:53:57;;;;;;;13.30;3.20;;;;;;;15.99;69.12;101483.09;5053269;28;20044;-75
2022/05/25 07:56:29;;;;;;;8.88;3.50;;;;;;;16.06;67.77;101487.84;5053400;28;20054;-76
2022/05/25 07:58:59;;;;;;;13.27;3.63;;;;;;;16.28;67.16;101478.38;5053105;28;20162;-75
2022/05/25 08:07:00;;;;;;;10.25;2.80;;;;;;;16.91;62.66;101471.72;5053346;28;20067;-76
2022/05/25 08:09:27;;;;;;;10.07;2.55;;;;;;;17.02;62.30;101484.03;5052727;28;20303;-75
2022/05/25 08:11:53;;;;;;;10.85;2.15;;;;;;;16.82;59.66;101486.94;5053023;28;20041;-75
2022/05/25 08:14:21;;;;;;;11.48;2.25;;;;;;;16.62;59.76;101490.94;5053101;28;20128;-78
2022/05/25 08:16:46;;;;;;;7.10;2.22;;;;;;;16.48;60.81;101478.97;5052720;28;20045;-76
2022/05/25 08:19:11;;;;;;;7.45;1.95;;;;;;;16.27;62.36;101488.31;5053210;28;20051;-76
2022/05/25 08:21:37;;;;;;;7.65;1.77;;;;;;;16.23;59.76;101481.56;5052996;28;20033;-75
2022/05/25 08:24:02;;;;;;;5.60;1.60;;;;;;;16.26;59.19;101491.97;5052951;28;20025;-76
2022/05/25 08:26:28;;;;;;;3.95;1.60;;;;;;;16.21;58.07;101492.47;5053287;28;20047;-76
2022/05/25 08:28:53;;;;;;;5.53;1.33;;;;;;;15.86;58.95;101494.25;5052757;28;20498;-76
2022/05/25 08:31:18;;;;;;;9.38;1.50;;;;;;;15.84;59.36;101498.13;5052767;28;20025;-75
2022/05/25 08:33:44;;;;;;;11.77;1.83;;;;;;;16.02;58.40;101487.31;5052750;28;20032;-77
2022/05/25 08:36:09;;;;;;;5.93;1.58;;;;;;;16.10;58.14;101483.84;5051640;28;20059;-75
2022/05/25 08:38:35;;;;;;;7.18;1.48;;;;;;;16.62;58.54;101482.88;5052678;28;20418;-76
2022/05/25 08:41:01;;;;;;;11.48;2.20;;;;;;;17.47;55.71;101479.16;5050774;28;20067;-74
2022/05/25 08:43:35;;;;;;;8.38;1.60;;;;;;;17.58;51.46;101476.94;5052220;28;20040;-74
2022/05/25 08:46:04;;;;;;;9.43;1.55;;;;;;;17.01;52.07;101487.72;5053023;28;20108;-75
2022/05/25 08:48:31;;;;;;;5.43;1.73;;;;;;;17.18;50.05;101489.41;5052506;28;20025;-74
2022/05/25 08:51:04;;;;;;;5.07;1.33;;;;;;;18.21;47.91;101487.09;5052224;28;20422;-74
2022/05/25 08:53:30;;;;;;;6.70;1.48;;;;;;;19.08;44.90;101483.47;5053108;28;20079;-74
2022/05/25 08:56:12;;;;;;;7.80;1.77;;;;;;;19.96;44.77;101486.59;5052227;28;20104;-74
2022/05/25 08:58:46;;;;;;;4.53;1.35;;;;;;;20.88;42.99;101493.41;5052635;28;20071;-75
2022/05/25 09:01:21;;;;;;;5.72;1.40;;;;;;;21.16;40.34;101485.38;5053076;28;20033;-75
2022/05/25 09:04:03;;;;;;;5.57;1.60;;;;;;;20.93;41.43;101494.50;5052543;28;20465;-75
2022/05/25 09:06:56;;;;;;;3.65;1.30;;;;;;;21.48;38.91;101499.38;5052397;28;20091;-76
2022/05/25 09:09:34;;;;;;;8.20;1.55;;;;;;;21.64;40.84;101509.13;5052939;28;20084;-75
2022/05/25 09:12:06;;;;;;;6.53;1.40;;;;;;;20.15;42.01;101518.44;5052405;28;20029;-75
2022/05/25 09:14:37;;;;;;;7.05;1.35;;;;;;;19.23;45.28;101514.06;5052178;28;20126;-75
2022/05/25 09:17:06;;;;;;;;;;;;;;;19.57;46.83;101520.84;5052514;28;20349;-75
2022/05/25 09:19:37;;;;;;;6.28;1.50;;;;;;;21.55;41.57;101518.44;5052123;28;19913;-75
2022/05/25 09:22:06;;;;;;;7.13;1.25;;;;;;;21.66;39.86;101526.88;5051681;28;20330;-73
2022/05/25 09:24:32;;;;;;;9.60;1.52;;;;;;;21.51;38.52;101520.69;5050521;28;20380;-73
2022/05/25 09:27:04;;;;;;;4.03;1.27;;;;;;;21.95;38.08;101507.91;5051893;28;20118;-75
2022/05/25 09:29:30;;;;;;;11.15;1.52;;;;;;;22.69;37.20;101526.25;5050496;28;20033;-73
2022/05/25 09:32:01;;;;;;;5.72;1.77;;;;;;;23.35;35.27;101515.78;5051875;28;20425;-76
2022/05/25 09:35:04;;;;;;;;;;;;;;;23.28;35.08;101514.94;5050928;28;20097;-72
2022/05/25 09:37:39;;;;;;;4.22;1.30;;;;;;;24.21;34.43;101533.88;5048904;28;20010;-73
2022/05/25 09:40:13;;;;;;;5.60;1.13;;;;;;;23.69;34.38;101520.16;5051104;28;20126;-73
2022/05/25 09:42:38;;;;;;;8.90;1.67;;;;;;;23.30;34.93;101523.69;5051805;28;20126;-73
2022/05/25 09:45:09;;;;;;;2.70;1.00;;;;;;;23.68;35.11;101532.06;5051887;28;20424;-75
2022/05/25 09:47:47;;;;;;;7.13;1.40;;;;;;;23.45;35.37;101529.75;5051994;28;20021;-75
2022/05/25 09:50:33;;;;;;;3.28;1.20;;;;;;;23.69;33.74;101528.31;5051509;28;20084;-75
2022/05/25 09:53:03;;;;;;;4.60;1.30;;;;;;;23.26;33.98;101531.44;5051838;28;20102;-74
2022/05/25 09:55:34;;;;;;;6.57;1.00;;;;;;;23.63;33.46;101539.16;5050107;28;20040;-73
2022/05/25 09:58:07;;;;;;;17.33;1.48;;;;;;;22.34;34.16;101544.44;5051775;28;20029;-74
2022/05/25 10:00:33;;;;;;;5.32;1.20;;;;;;;20.56;37.30;101545.00;5051292;28;20094;-74
2022/05/25 10:03:01;;;;;;;5.50;0.90;;;;;;;20.85;39.14;101547.88;5050984;28;20136;-75
2022/05/25 10:05:32;;;;;;;5.15;1.08;;;;;;;20.67;38.02;101551.81;5051342;28;20483;-75
2022/05/25 10:08:27;;;;;;;3.88;1.10;;;;;;;20.03;40.14;101563.16;5051286;28;20029;-74
2022/05/25 10:10:56;;;;;;;2.42;0.93;;;;;;;19.77;40.41;101550.06;5045078;28;20041;-74
2022/05/25 10:13:29;;;;;;;6.75;1.13;;;;;;;18.88;41.74;101556.72;5050205;28;20475;-73
2022/05/25 10:15:55;;;;;;;7.43;1.17;;;;;;;18.93;41.71;101554.38;5049767;28;20041;-74
2022/05/25 10:18:42;;;;;;;12.32;1.55;;;;;;;18.68;42.13;101557.13;5051100;28;20033;-74
2022/05/25 10:21:23;;;;;;;7.50;1.10;;;;;;;17.92;44.83;101562.06;5050742;28;20040;-74
2022/05/25 10:23:49;;;;;;;3.72;0.95;;;;;;;18.17;45.62;101561.16;5050817;28;20152;-74
2022/05/25 10:26:29;;;;;;;2.67;1.00;;;;;;;19.18;42.93;101565.84;5050759;28;20041;-73
2022/05/25 10:28:57;;;;;;;6.53;0.88;;;;;;;19.59;42.17;101564.72;5050896;28;20024;-75
2022/05/25 10:36:49;;;;;;;6.18;1.10;;;;;;;21.25;38.77;101551.84;5050983;28;20368;-73
2022/05/25 10:39:19;;;;;;;5.28;1.20;;;;;;;22.51;38.44;101548.50;5050398;28;20041;-73
2022/05/25 10:42:13;;;;;;;6.57;1.23;;;;;;;22.79;34.63;101554.84;5051013;28;20093;-76
2022/05/25 10:44:58;;;;;;;4.90;1.10;;;;;;;22.95;34.70;101561.81;5050972;28;20036;-73
2022/05/25 10:47:45;;;;;;;7.63;1.17;;;;;;;22.86;37.00;101544.88;5050597;28;20047;-74
2022/05/25 10:50:32;;;;;;;6.30;0.93;;;;;;;23.20;35.27;101551.25;5049448;28;20032;-75
2022/05/25 10:53:17;;;;;;;3.60;1.30;;;;;;;23.23;35.17;101561.72;5050833;28;20029;-73
2022/05/25 10:55:48;;;;;;;5.78;1.10;;;;;;;23.74;35.74;101555.69;5050770;28;20108;-73
2022/05/25 10:58:35;;;;;;;5.93;1.25;;;;;;;24.23;34.21;101559.00;5050472;28;20112;-74
2022/05/25 11:01:28;;;;;;;5.97;1.50;;;;;;;23.37;34.22;101547.09;5050756;28;20410;-73
2022/05/25 11:04:14;;;;;;;5.43;1.30;;;;;;;23.93;32.45;101564.91;5048905;28;20472;-73
2022/05/25 11:07:01;;;;;;;2.38;0.90;;;;;;;23.37;33.15;101535.41;5049624;28;20410;-73
2022/05/25 11:09:36;;;;;;;9.35;1.08;;;;;;;23.12;33.67;101538.69;5050885;28;20048;-75
2022/05/25 11:12:59;;;;;;;4.13;1.00;;;;;;;22.89;33.80;101553.44;5049393;28;20033;-73
2022/05/25 11:15:27;;;;;;;4.90;0.82;;;;;;;21.03;36.93;101534.75;5027745;28;20052;-74
2022/05/25 11:18:13;;;;;;;4.63;1.02;;;;;;;19.98;38.94;101539.41;5027962;28;20193;-74
2022/05/25 11:20:57;;;;;;;4.95;0.90;;;;;;;20.34;39.09;101535.16;5041975;28;20052;-74
2022/05/25 11:23:56;;;;;;;4.20;1.00;;;;;;;21.37;39.13;101541.34;5050211;28;20090;-74
2022/05/25 11:26:41;;;;;;;9.88;1.15;;;;;;;22.86;34.92;101528.59;5039104;28;20116;-74
2022/05/25 11:29:15;;;;;;;3.08;0.98;;;;;;;23.31;35.67;101536.25;5050159;28;20041;-75
2022/05/25 11:32:23;;;;;;;6.93;1.00;;;;;;;23.27;33.20;101529.53;5050097;28;20143;-74
2022/05/25 11:35:04;;;;;;;1.80;0.98;;;;;;;22.99;31.88;101536.78;5049957;28;20056;-75
2022/05/25 11:37:39;;;;;;;;;;;;;;;22.39;32.51;101533.81;5050062;28;20417;-74
2022/05/25 11:40:12;;;;;;;4.10;0.80;;;;;;;22.10;34.74;101529.47;5050263;28;19947;-75
2022/05/25 11:42:49;;;;;;;7.47;0.98;;;;;;;21.68;33.41;101537.50;5050569;28;20061;-75
2022/05/25 11:45:14;;;;;;;9.38;1.17;;;;;;;22.45;34.12;101529.47;5049811;28;20040;-74
2022/05/25 11:48:13;;;;;;;4.47;1.38;;;;;;;22.73;32.57;101526.66;5049709;28;20366;-74
2022/05/25 11:50:52;;;;;;;8.02;1.10;;;;;;;22.12;33.17;101525.50;5046173;28;20548;-74
2022/05/25 11:53:26;;;;;;;4.38;1.00;;;;;;;21.27;34.61;101525.47;5049742;28;20036;-74
2022/05/25 11:56:36;;;;;;;4.00;0.75;;;;;;;20.67;36.51;101535.59;5048531;28;20044;-74
2022/05/25 11:59:07;;;;;;;4.13;1.00;;;;;;;20.55;37.34;101527.09;5050150;28;20087;-75
2022/05/25 12:01:39;;;;;;;3.20;1.05;;;;;;;20.86;38.00;101530.63;5049798;28;20045;-74
2022/05/25 12:04:16;;;;;;;8.02;1.67;;;;;;;21.43;37.46;101527.03;5049406;28;20532;-74